Time;durP1;ratioP1;P1;durP2;ratioP2;P2;SDS_P1;SDS_P2;PMS_P1;PMS_P2;Temp;Humidity;BMP_temperature;BMP_pressure;BME280_temperature;BME280_humidity;BME280_pressure;Samples;Min_cycle;Max_cycle;Signal;HPM_P1;HPM_P2
2022/10/14 00:00:20;;;;;;;56.53;27.15;;;10.50;99.90;;;;;;5020910;28;20044;-59
2022/10/14 00:02:46;;;;;;;57.40;26.58;;;10.40;99.90;;;;;;5020463;28;20379;-59
2022/10/14 00:05:11;;;;;;;88.68;29.83;;;10.40;99.90;;;;;;5021650;28;20021;-59
2022/10/14 00:07:37;;;;;;;78.90;29.98;;;10.40;99.90;;;;;;5016858;28;20059;-58
2022/10/14 00:10:06;;;;;;;92.65;31.73;;;10.40;99.90;;;;;;5018442;28;20496;-58
2022/10/14 00:12:33;;;;;;;81.22;30.75;;;10.40;99.90;;;;;;5016041;28;20580;-59
2022/10/14 00:14:58;;;;;;;68.53;31.42;;;10.50;99.90;;;;;;5015700;28;20040;-58
2022/10/14 00:17:24;;;;;;;81.68;33.88;;;10.50;99.90;;;;;;5017665;28;20029;-59
2022/10/14 00:19:50;;;;;;;93.05;33.58;;;10.60;99.90;;;;;;5018601;28;20528;-58
2022/10/14 00:22:15;;;;;;;73.72;31.15;;;10.70;99.90;;;;;;5019244;28;20482;-58
2022/10/14 00:24:41;;;;;;;95.30;33.90;;;10.80;99.90;;;;;;5014039;28;20088;-58
2022/10/14 00:27:07;;;;;;;114.40;35.92;;;10.90;99.90;;;;;;5024018;28;20029;-60
2022/10/14 00:29:33;;;;;;;85.63;32.67;;;10.90;99.90;;;;;;5015541;28;20509;-59
2022/10/14 00:31:58;;;;;;;93.82;34.17;;;11.00;99.90;;;;;;5016415;28;20033;-58
2022/10/14 00:34:24;;;;;;;79.63;33.28;;;11.00;99.90;;;;;;5018971;28;20026;-58
2022/10/14 00:36:50;;;;;;;65.60;31.48;;;11.10;99.90;;;;;;5017243;28;20034;-59
2022/10/14 00:39:16;;;;;;;78.88;31.35;;;11.10;99.90;;;;;;5018171;28;20025;-59
2022/10/14 00:41:41;;;;;;;69.68;30.58;;;11.10;99.90;;;;;;5017542;28;20037;-59
2022/10/14 00:44:27;;;;;;;66.13;30.45;;;11.20;99.90;;;;;;5017318;28;20026;-59
2022/10/14 00:46:54;;;;;;;62.38;29.58;;;11.20;99.90;;;;;;5013735;28;20049;-58
2022/10/14 00:49:27;;;;;;;70.55;29.40;;;11.20;99.90;;;;;;5019096;28;20448;-59
2022/10/14 00:52:16;;;;;;;64.97;26.98;;;11.10;99.90;;;;;;5016010;28;20033;-59
2022/10/14 00:54:55;;;;;;;72.03;29.58;;;11.10;99.90;;;;;;5015315;28;20034;-59
2022/10/14 00:57:23;;;;;;;64.60;28.15;;;11.20;99.90;;;;;;5019726;28;20034;-59
2022/10/14 00:59:50;;;;;;;49.38;27.65;;;11.20;99.90;;;;;;5029051;28;20037;-59
2022/10/14 01:02:15;;;;;;;74.28;29.45;;;11.20;99.90;;;;;;5023717;28;20086;-59
2022/10/14 01:04:42;;;;;;;69.68;29.23;;;11.20;99.90;;;;;;5019775;28;20400;-59
2022/10/14 01:07:33;;;;;;;57.42;29.92;;;11.20;99.90;;;;;;5019906;28;20021;-59
2022/10/14 01:10:25;;;;;;;64.28;28.02;;;11.20;99.90;;;;;;5022420;28;20022;-59
2022/10/14 01:13:05;;;;;;;65.95;29.00;;;11.30;99.90;;;;;;5020577;28;20022;-59
2022/10/14 01:15:43;;;;;;;47.45;26.73;;;11.30;99.90;;;;;;5021201;28;20665;-59
2022/10/14 01:18:18;;;;;;;67.75;28.45;;;11.30;99.90;;;;;;5019066;28;20501;-59
2022/10/14 01:21:24;;;;;;;95.50;29.88;;;11.30;99.90;;;;;;5021143;28;20052;-57
2022/10/14 01:23:53;;;;;;;68.35;28.38;;;11.40;99.90;;;;;;5011457;28;20026;-59
2022/10/14 01:26:50;;;;;;;62.72;30.30;;;11.40;99.90;;;;;;5019322;28;20678;-58
2022/10/14 01:29:50;;;;;;;66.82;30.92;;;11.50;99.90;;;;;;5021662;28;20027;-58
2022/10/14 01:32:30;;;;;;;52.00;27.98;;;11.40;99.90;;;;;;5021117;28;20028;-59
2022/10/14 01:35:13;;;;;;;63.47;29.27;;;11.40;99.90;;;;;;5023763;28;20030;-59
2022/10/14 01:37:51;;;;;;;67.00;29.17;;;11.50;99.90;;;;;;5023226;28;20512;-59
2022/10/14 01:40:26;;;;;;;76.35;31.35;;;11.40;99.90;;;;;;5021442;28;20041;-59
2022/10/14 01:42:54;;;;;;;78.68;30.58;;;11.40;99.90;;;;;;5020674;28;20157;-58
2022/10/14 01:45:22;;;;;;;74.13;30.20;;;11.50;99.90;;;;;;5021445;28;20022;-58
2022/10/14 01:47:50;;;;;;;69.43;30.45;;;11.40;99.90;;;;;;5018594;28;20026;-58
2022/10/14 01:50:19;;;;;;;64.55;30.02;;;11.40;99.90;;;;;;5021018;28;20539;-58
2022/10/14 01:53:08;;;;;;;51.65;30.50;;;11.50;99.90;;;;;;5018303;28;20544;-60
2022/10/14 01:55:41;;;;;;;73.00;30.67;;;11.50;99.90;;;;;;5017496;28;20022;-57
2022/10/14 01:58:09;;;;;;;87.10;31.55;;;11.50;99.90;;;;;;5013377;28;20022;-59
2022/10/14 02:00:35;;;;;;;82.28;30.48;;;11.50;99.90;;;;;;5018376;28;20049;-59
2022/10/14 02:03:01;;;;;;;73.45;29.33;;;11.50;99.90;;;;;;5020527;28;20026;-59
2022/10/14 02:05:49;;;;;;;68.85;29.65;;;11.50;99.90;;;;;;5022488;28;20072;-59
2022/10/14 02:08:15;;;;;;;96.78;30.65;;;11.50;99.90;;;;;;5017727;28;20022;-60
2022/10/14 02:10:59;;;;;;;88.75;28.63;;;11.50;99.90;;;;;;5020305;28;20073;-58
2022/10/14 02:13:28;;;;;;;87.10;30.33;;;11.50;99.90;;;;;;5019151;28;20458;-59
2022/10/14 02:16:24;;;;;;;73.20;29.42;;;11.50;99.90;;;;;;5042172;28;20045;-59
2022/10/14 02:19:18;;;;;;;73.28;29.50;;;11.50;99.90;;;;;;5037840;28;20034;-59
2022/10/14 02:22:34;;;;;;;70.18;27.05;;;11.50;99.90;;;;;;5037682;28;20025;-59
2022/10/14 02:25:06;;;;;;;75.80;30.20;;;11.50;99.90;;;;;;4961854;28;20057;-60
2022/10/14 02:27:35;;;;;;;78.47;30.00;;;11.50;99.90;;;;;;4961061;28;20090;-59
2022/10/14 02:30:03;;;;;;;61.53;30.02;;;11.50;99.90;;;;;;5009456;28;20037;-58
2022/10/14 02:32:30;;;;;;;55.65;30.23;;;11.50;99.90;;;;;;5042176;28;20350;-59
2022/10/14 02:34:58;;;;;;;79.03;30.38;;;11.50;99.90;;;;;;5037896;28;20511;-59
2022/10/14 02:37:26;;;;;;;68.70;31.30;;;11.50;99.90;;;;;;5040595;28;20025;-58
2022/10/14 02:39:59;;;;;;;68.75;31.08;;;11.50;99.90;;;;;;5036455;28;20083;-59
2022/10/14 02:42:26;;;;;;;68.85;30.05;;;11.50;99.90;;;;;;5036518;28;20041;-59
2022/10/14 02:44:57;;;;;;;76.20;30.80;;;11.50;99.90;;;;;;5038183;28;20799;-58
2022/10/14 02:47:24;;;;;;;87.75;31.88;;;11.50;99.90;;;;;;5036158;28;20612;-58
2022/10/14 02:49:50;;;;;;;85.88;32.08;;;11.50;99.90;;;;;;5004435;28;1089271;-59
2022/10/14 02:52:16;;;;;;;66.65;29.00;;;11.50;99.90;;;;;;5039072;28;20457;-58
2022/10/14 02:54:41;;;;;;;81.10;31.77;;;11.50;99.90;;;;;;5037238;28;20025;-59
2022/10/14 02:57:07;;;;;;;89.53;32.20;;;11.50;99.90;;;;;;5036961;28;20104;-59
2022/10/14 02:59:33;;;;;;;82.57;31.25;;;11.50;99.90;;;;;;5039974;28;20143;-58
2022/10/14 03:01:58;;;;;;;87.03;33.83;;;11.50;99.90;;;;;;5041593;28;20028;-59
2022/10/14 03:04:24;;;;;;;77.47;32.58;;;11.50;99.90;;;;;;5041680;28;20105;-58
2022/10/14 03:06:49;;;;;;;99.07;34.72;;;11.50;99.90;;;;;;5039767;28;20033;-58
2022/10/14 03:09:15;;;;;;;76.75;33.22;;;11.50;99.90;;;;;;5027893;28;20018;-58
2022/10/14 03:11:40;;;;;;;79.25;32.05;;;11.50;99.90;;;;;;5034244;28;20048;-59
2022/10/14 03:14:06;;;;;;;96.03;34.35;;;11.50;99.90;;;;;;5037819;28;20032;-59
2022/10/14 03:16:32;;;;;;;90.95;34.60;;;11.60;99.90;;;;;;5037733;28;20024;-60
2022/10/14 03:18:57;;;;;;;89.53;32.65;;;11.60;99.90;;;;;;5039842;28;20548;-59
2022/10/14 03:21:23;;;;;;;100.50;33.50;;;11.60;99.90;;;;;;5038804;28;20052;-59
2022/10/14 03:23:49;;;;;;;86.28;33.83;;;11.60;99.90;;;;;;5037968;28;20112;-58
2022/10/14 03:26:15;;;;;;;86.57;32.90;;;11.60;99.90;;;;;;5040469;28;20397;-58
2022/10/14 03:28:41;;;;;;;79.90;33.10;;;11.50;99.90;;;;;;5037568;28;20099;-59
2022/10/14 03:31:06;;;;;;;92.22;33.50;;;11.60;99.90;;;;;;5041722;28;20456;-59
2022/10/14 03:33:32;;;;;;;77.43;33.95;;;11.60;99.90;;;;;;5040334;28;20029;-59
2022/10/14 03:35:57;;;;;;;95.00;36.30;;;11.60;99.90;;;;;;5035810;28;20036;-61
2022/10/14 03:38:23;;;;;;;68.25;32.55;;;11.60;99.90;;;;;;5039060;28;20029;-59
2022/10/14 03:40:49;;;;;;;74.40;32.08;;;11.60;99.90;;;;;;5037726;28;20056;-59
2022/10/14 03:43:14;;;;;;;77.80;31.98;;;11.60;99.90;;;;;;5042296;28;20464;-59
2022/10/14 03:45:40;;;;;;;68.63;33.40;;;11.60;99.90;;;;;;5038684;28;20029;-59
2022/10/14 03:48:05;;;;;;;76.07;33.20;;;11.70;99.90;;;;;;5034434;28;20040;-58
2022/10/14 03:50:31;;;;;;;77.65;33.88;;;11.70;99.90;;;;;;5036500;28;20068;-58
2022/10/14 03:52:57;;;;;;;78.78;32.40;;;11.70;99.90;;;;;;5033822;28;20137;-58
2022/10/14 03:55:23;;;;;;;79.40;31.88;;;11.70;99.90;;;;;;5040200;28;20473;-59
2022/10/14 03:57:49;;;;;;;99.28;32.70;;;11.70;99.90;;;;;;5040457;28;20033;-59
2022/10/14 04:00:14;;;;;;;89.28;33.72;;;11.70;99.90;;;;;;5036565;28;20086;-58
2022/10/14 04:02:41;;;;;;;120.43;36.45;;;11.70;99.90;;;;;;5034590;28;20029;-58
2022/10/14 04:05:07;;;;;;;103.28;33.38;;;11.70;99.90;;;;;;5035851;28;20037;-59
2022/10/14 04:07:32;;;;;;;74.20;34.15;;;11.70;99.90;;;;;;5037432;28;20395;-58
2022/10/14 04:09:58;;;;;;;86.07;33.53;;;11.70;99.90;;;;;;5038260;28;20025;-59
2022/10/14 04:12:24;;;;;;;86.30;32.95;;;11.70;99.90;;;;;;5034591;28;20035;-58
2022/10/14 04:14:49;;;;;;;110.07;33.55;;;11.70;99.90;;;;;;5035740;28;20108;-58
2022/10/14 04:17:15;;;;;;;92.40;33.80;;;11.70;99.90;;;;;;5035022;28;20028;-57
2022/10/14 04:19:40;;;;;;;102.82;36.45;;;11.70;99.90;;;;;;5039871;28;20031;-58
2022/10/14 04:22:06;;;;;;;108.93;34.63;;;11.70;99.90;;;;;;5038206;28;20074;-58
2022/10/14 04:24:32;;;;;;;104.35;36.47;;;11.70;99.90;;;;;;5037537;28;20025;-58
2022/10/14 04:26:58;;;;;;;103.40;33.78;;;11.60;99.90;;;;;;5040273;28;20036;-58
2022/10/14 04:29:24;;;;;;;102.63;34.53;;;11.60;99.90;;;;;;5039007;28;20032;-58
2022/10/14 04:31:49;;;;;;;101.57;35.72;;;11.60;99.90;;;;;;5037905;28;20043;-58
2022/10/14 04:34:15;;;;;;;71.93;32.75;;;11.60;99.90;;;;;;5039233;28;20052;-59
2022/10/14 04:36:40;;;;;;;74.88;34.17;;;11.60;99.90;;;;;;5035296;28;20075;-58
2022/10/14 04:39:06;;;;;;;98.00;35.17;;;11.70;99.90;;;;;;5035136;28;20033;-59
2022/10/14 04:41:32;;;;;;;76.35;35.50;;;11.70;99.90;;;;;;5032022;28;20033;-58
2022/10/14 04:43:57;;;;;;;83.63;34.30;;;11.70;99.90;;;;;;5036519;28;20018;-59
2022/10/14 04:46:23;;;;;;;91.50;35.05;;;11.70;99.90;;;;;;5042942;28;20028;-58
2022/10/14 04:48:49;;;;;;;78.82;33.30;;;11.70;99.90;;;;;;5040320;28;20120;-59
2022/10/14 04:51:14;;;;;;;62.15;31.05;;;11.70;99.90;;;;;;5034548;28;20358;-59
2022/10/14 04:53:40;;;;;;;89.47;34.30;;;11.70;99.90;;;;;;5032373;28;20089;-60
2022/10/14 04:56:06;;;;;;;93.63;33.45;;;11.70;99.90;;;;;;5039042;28;20412;-58
2022/10/14 04:58:31;;;;;;;81.28;32.95;;;11.70;99.90;;;;;;5037758;28;20021;-58
2022/10/14 05:00:57;;;;;;;87.38;33.28;;;11.70;99.90;;;;;;5038763;28;20036;-59
2022/10/14 05:03:23;;;;;;;76.60;32.97;;;11.70;99.90;;;;;;5042092;28;20033;-58
2022/10/14 05:05:51;;;;;;;90.97;33.15;;;11.70;99.90;;;;;;5036172;28;20034;-59
2022/10/14 05:08:17;;;;;;;109.20;35.05;;;11.70;99.90;;;;;;5037224;28;20028;-59
2022/10/14 05:10:43;;;;;;;88.82;33.95;;;11.70;99.90;;;;;;5036122;28;20052;-59
2022/10/14 05:13:08;;;;;;;77.90;33.00;;;11.70;99.90;;;;;;5037574;28;20025;-58
2022/10/14 05:15:34;;;;;;;92.65;34.75;;;11.70;99.90;;;;;;5037498;28;20455;-57
2022/10/14 05:18:00;;;;;;;104.90;34.33;;;11.70;99.90;;;;;;5036183;28;20034;-58
2022/10/14 05:20:25;;;;;;;110.55;36.53;;;11.70;99.90;;;;;;5002331;28;20497;-59
2022/10/14 05:22:51;;;;;;;110.53;35.00;;;11.70;99.90;;;;;;5037663;28;20914;-58
2022/10/14 05:25:17;;;;;;;96.93;34.97;;;11.70;99.90;;;;;;5036541;28;20037;-59
2022/10/14 05:27:43;;;;;;;84.63;33.38;;;11.70;99.90;;;;;;5035187;28;20112;-60
2022/10/14 05:30:09;;;;;;;102.15;34.45;;;11.70;99.90;;;;;;5038224;28;20037;-59
2022/10/14 05:32:35;;;;;;;103.43;34.08;;;11.70;99.90;;;;;;5038206;28;20033;-59
2022/10/14 05:35:01;;;;;;;89.05;32.63;;;11.70;99.90;;;;;;5036012;28;20029;-58
2022/10/14 05:37:27;;;;;;;96.65;33.78;;;11.70;99.90;;;;;;5036589;28;20036;-58
2022/10/14 05:39:54;;;;;;;79.55;32.97;;;11.70;99.90;;;;;;5033072;28;20034;-57
2022/10/14 05:42:19;;;;;;;87.93;34.10;;;11.70;99.90;;;;;;5036548;28;20025;-58
2022/10/14 05:44:45;;;;;;;79.78;34.53;;;11.70;99.90;;;;;;5041430;28;20519;-58
2022/10/14 05:47:11;;;;;;;70.07;32.30;;;11.70;99.90;;;;;;5039946;28;20032;-58
2022/10/14 05:49:37;;;;;;;77.53;32.97;;;11.70;99.90;;;;;;5037003;28;20029;-57
2022/10/14 05:52:04;;;;;;;77.35;32.42;;;11.70;99.90;;;;;;5041285;28;20025;-58
2022/10/14 05:54:30;;;;;;;87.88;32.53;;;11.80;99.90;;;;;;5039734;28;20036;-59
2022/10/14 05:56:55;;;;;;;72.55;31.92;;;11.80;99.90;;;;;;5038845;28;20100;-58
2022/10/14 05:59:21;;;;;;;86.07;32.35;;;11.80;99.90;;;;;;5041622;28;20159;-58
2022/10/14 06:01:47;;;;;;;71.32;31.38;;;11.80;99.90;;;;;;5042991;28;20038;-58
2022/10/14 06:04:17;;;;;;;86.18;31.25;;;11.80;99.90;;;;;;5041562;28;20044;-58
2022/10/14 06:06:43;;;;;;;57.13;28.90;;;11.80;99.90;;;;;;5041085;28;20458;-58
2022/10/14 06:09:09;;;;;;;74.28;30.63;;;11.80;99.90;;;;;;5042119;28;20043;-58
2022/10/14 06:11:34;;;;;;;77.53;30.77;;;11.80;99.90;;;;;;5042994;28;20025;-58
2022/10/14 06:14:00;;;;;;;83.10;29.77;;;11.80;99.90;;;;;;5042185;28;20036;-58
2022/10/14 06:16:25;;;;;;;82.97;30.55;;;11.80;99.90;;;;;;5040973;28;20079;-58
2022/10/14 06:18:51;;;;;;;59.33;27.67;;;11.80;99.90;;;;;;5039025;28;20052;-59
2022/10/14 06:21:17;;;;;;;54.55;25.15;;;11.90;99.90;;;;;;5040968;28;20495;-59
2022/10/14 06:23:42;;;;;;;64.07;26.65;;;11.90;99.90;;;;;;5042436;28;20334;-59
2022/10/14 06:26:08;;;;;;;60.22;27.65;;;11.90;99.90;;;;;;5026603;28;20124;-59
2022/10/14 06:28:35;;;;;;;78.72;27.08;;;11.90;99.90;;;;;;5044803;28;20037;-58
2022/10/14 06:31:00;;;;;;;54.40;26.63;;;11.90;99.90;;;;;;5043901;28;20008;-58
2022/10/14 06:33:28;;;;;;;53.60;26.02;;;12.00;99.90;;;;;;5040877;28;20524;-58
2022/10/14 06:35:54;;;;;;;52.35;24.65;;;12.00;99.90;;;;;;5040134;28;20405;-59
2022/10/14 06:38:20;;;;;;;60.13;25.02;;;12.00;99.90;;;;;;5038972;28;20511;-59
2022/10/14 06:40:49;;;;;;;62.97;25.42;;;12.00;99.90;;;;;;5037896;28;20021;-59
2022/10/14 06:43:15;;;;;;;76.80;26.70;;;12.10;99.90;;;;;;5040660;28;20017;-59
2022/10/14 06:45:41;;;;;;;35.25;23.35;;;12.10;99.90;;;;;;5046389;28;20024;-60
2022/10/14 06:48:06;;;;;;;56.13;25.25;;;12.20;99.90;;;;;;5039012;28;20451;-59
2022/10/14 06:50:32;;;;;;;32.88;23.17;;;12.20;99.90;;;;;;5038437;28;20033;-58
2022/10/14 06:52:57;;;;;;;39.90;23.10;;;12.20;99.90;;;;;;5033357;28;20033;-59
2022/10/14 06:55:23;;;;;;;31.55;21.73;;;12.30;99.90;;;;;;5041544;28;20030;-58
2022/10/14 06:57:49;;;;;;;33.47;22.25;;;12.40;99.90;;;;;;5038689;28;20071;-59
2022/10/14 07:00:15;;;;;;;32.92;22.38;;;12.40;99.90;;;;;;5035356;28;20393;-59
2022/10/14 07:02:40;;;;;;;39.35;22.45;;;12.40;99.90;;;;;;5040745;28;20382;-59
2022/10/14 07:05:06;;;;;;;25.88;20.65;;;12.50;99.90;;;;;;5043018;28;20036;-59
2022/10/14 07:07:32;;;;;;;30.48;21.02;;;12.50;99.90;;;;;;5038694;28;20063;-59
2022/10/14 07:09:58;;;;;;;32.35;20.75;;;12.50;99.90;;;;;;5041419;28;20035;-59
2022/10/14 07:12:24;;;;;;;34.50;19.95;;;12.50;99.90;;;;;;5035156;28;20417;-57
2022/10/14 07:14:50;;;;;;;37.05;21.67;;;12.50;99.90;;;;;;5037755;28;20527;-58
2022/10/14 07:17:15;;;;;;;41.85;22.20;;;12.50;99.90;;;;;;5038186;28;20042;-59
2022/10/14 07:19:41;;;;;;;31.27;20.55;;;12.50;99.90;;;;;;5035229;28;20073;-57
2022/10/14 07:22:07;;;;;;;37.67;23.27;;;12.60;99.90;;;;;;5037682;28;20017;-58
2022/10/14 07:24:32;;;;;;;30.08;22.90;;;12.60;99.90;;;;;;5039648;28;20026;-59
2022/10/14 07:26:58;;;;;;;25.38;20.75;;;12.60;99.90;;;;;;5044496;28;20052;-58
2022/10/14 07:29:24;;;;;;;29.85;21.67;;;12.70;99.90;;;;;;5040941;28;20029;-58
2022/10/14 07:31:49;;;;;;;26.60;19.55;;;12.80;99.90;;;;;;5038467;28;20440;-60
2022/10/14 07:34:15;;;;;;;32.60;20.67;;;12.80;99.90;;;;;;5039055;28;20021;-59
2022/10/14 07:36:41;;;;;;;28.02;19.73;;;12.90;99.90;;;;;;5038861;28;20025;-59
2022/10/14 07:39:06;;;;;;;29.65;21.35;;;13.00;99.90;;;;;;5026874;28;20033;-59
2022/10/14 07:41:32;;;;;;;20.65;18.42;;;13.00;99.90;;;;;;5045258;28;20024;-58
2022/10/14 07:44:07;;;;;;;23.00;18.70;;;13.00;99.90;;;;;;5039961;28;20787;-59
2022/10/14 07:46:36;;;;;;;22.75;19.67;;;13.00;99.90;;;;;;5041914;28;20048;-58
2022/10/14 07:49:05;;;;;;;21.55;18.67;;;13.00;99.90;;;;;;5041229;28;20036;-59
2022/10/14 07:51:32;;;;;;;27.95;18.95;;;12.90;99.90;;;;;;5034459;28;20064;-58
2022/10/14 07:54:00;;;;;;;24.73;19.27;;;12.90;99.90;;;;;;5040962;28;20505;-59
2022/10/14 07:56:26;;;;;;;25.38;19.15;;;13.00;99.90;;;;;;5038605;28;20032;-58
2022/10/14 07:58:52;;;;;;;24.08;19.33;;;13.10;99.90;;;;;;5035463;28;20037;-59
2022/10/14 08:01:18;;;;;;;22.08;17.80;;;13.20;99.90;;;;;;5036427;28;20129;-58
2022/10/14 08:03:46;;;;;;;25.25;17.92;;;13.30;99.90;;;;;;5028454;28;20042;-59
2022/10/14 08:06:12;;;;;;;20.45;16.35;;;13.40;99.90;;;;;;5034553;28;20034;-59
2022/10/14 08:08:39;;;;;;;21.05;17.17;;;13.50;99.90;;;;;;5038594;28;20032;-58
2022/10/14 08:11:14;;;;;;;20.65;15.60;;;13.60;99.90;;;;;;5038132;28;20037;-58
2022/10/14 08:13:40;;;;;;;21.30;15.93;;;13.60;99.90;;;;;;5036412;28;20029;-59
2022/10/14 08:16:16;;;;;;;19.05;15.73;;;13.60;99.90;;;;;;5041391;28;20910;-59
2022/10/14 08:18:42;;;;;;;35.00;17.45;;;13.50;99.90;;;;;;5038230;28;20487;-60
2022/10/14 08:21:08;;;;;;;25.83;18.00;;;13.50;99.90;;;;;;5041114;28;20021;-58
2022/10/14 08:23:34;;;;;;;18.70;16.83;;;13.50;99.90;;;;;;5039018;28;20122;-57
2022/10/14 08:25:59;;;;;;;16.77;15.15;;;13.40;99.90;;;;;;5038131;28;20024;-56
2022/10/14 08:28:25;;;;;;;18.83;16.88;;;13.40;99.90;;;;;;5035202;28;20113;-58
2022/10/14 08:30:52;;;;;;;28.50;18.77;;;13.40;99.90;;;;;;5039454;28;20431;-58
2022/10/14 08:33:18;;;;;;;24.95;17.70;;;13.50;99.90;;;;;;5038576;28;20028;-59
2022/10/14 08:35:43;;;;;;;17.60;16.05;;;13.50;99.90;;;;;;5012354;28;20036;-58
2022/10/14 08:38:10;;;;;;;19.02;15.88;;;13.70;99.90;;;;;;5035945;28;20103;-59
2022/10/14 08:41:03;;;;;;;20.23;17.20;;;13.80;99.90;;;;;;5036351;28;20029;-58
2022/10/14 08:43:37;;;;;;;21.75;18.25;;;13.90;99.90;;;;;;5036561;28;20033;-59
2022/10/14 08:46:30;;;;;;;17.77;16.08;;;14.00;99.90;;;;;;5040025;28;20079;-58
2022/10/14 08:49:09;;;;;;;20.30;15.10;;;14.20;99.90;;;;;;5034340;28;20505;-58
2022/10/14 08:51:35;;;;;;;18.95;17.02;;;14.20;99.90;;;;;;5038185;28;20497;-58
2022/10/14 08:54:08;;;;;;;17.75;15.93;;;14.30;99.90;;;;;;5040081;28;20448;-58
2022/10/14 08:56:35;;;;;;;18.05;16.52;;;14.30;99.90;;;;;;5036658;28;20033;-58
2022/10/14 08:59:06;;;;;;;17.70;15.90;;;14.30;99.90;;;;;;5033893;28;20057;-58
2022/10/14 09:01:34;;;;;;;18.05;15.90;;;14.20;99.90;;;;;;5019689;28;20545;-59
2022/10/14 09:04:04;;;;;;;21.45;17.60;;;14.10;99.90;;;;;;5037924;28;20595;-59
2022/10/14 09:06:33;;;;;;;25.58;16.15;;;14.10;99.90;;;;;;5038730;28;20079;-58
2022/10/14 09:09:09;;;;;;;17.75;14.95;;;14.10;99.90;;;;;;5036846;28;20595;-59
2022/10/14 09:11:42;;;;;;;20.50;14.35;;;14.10;99.90;;;;;;5036889;28;20080;-58
2022/10/14 09:14:15;;;;;;;16.70;14.45;;;14.10;99.90;;;;;;5034185;28;20100;-59
2022/10/14 09:16:44;;;;;;;17.45;14.23;;;14.10;99.90;;;;;;5040099;28;20501;-59
2022/10/14 09:19:50;;;;;;;20.50;15.02;;;14.10;99.90;;;;;;5045112;28;20484;-59
2022/10/14 09:22:15;;;;;;;17.80;14.90;;;14.00;99.90;;;;;;5038244;28;20048;-57
2022/10/14 09:24:45;;;;;;;20.13;16.42;;;13.90;99.90;;;;;;5039149;28;20033;-58
2022/10/14 09:27:20;;;;;;;23.80;17.55;;;13.90;99.90;;;;;;5020007;28;20040;-59
2022/10/14 09:29:48;;;;;;;27.65;16.17;;;13.90;99.90;;;;;;5040759;28;20024;-59
2022/10/14 09:32:32;;;;;;;20.45;15.23;;;13.90;99.90;;;;;;5040183;28;20047;-60
2022/10/14 09:34:59;;;;;;;30.33;17.08;;;13.90;99.90;;;;;;5039314;28;20171;-60
2022/10/14 09:37:27;;;;;;;21.63;17.25;;;14.00;99.90;;;;;;5037615;28;20108;-58
2022/10/14 09:39:57;;;;;;;19.65;17.55;;;14.00;99.90;;;;;;5039736;28;20041;-59
2022/10/14 09:42:32;;;;;;;19.98;17.67;;;14.10;99.90;;;;;;5038865;28;20025;-58
2022/10/14 09:45:11;;;;;;;27.25;18.73;;;14.20;99.90;;;;;;5038976;28;20074;-60
2022/10/14 09:47:58;;;;;;;20.35;18.15;;;14.20;99.90;;;;;;5041640;28;20021;-58
2022/10/14 09:50:33;;;;;;;18.25;16.08;;;14.30;99.90;;;;;;5035678;28;20025;-58
2022/10/14 09:53:19;;;;;;;19.73;15.25;;;14.30;99.90;;;;;;5039592;28;20109;-58
2022/10/14 09:55:53;;;;;;;16.88;15.20;;;14.40;99.90;;;;;;5023353;28;20028;-59
2022/10/14 09:58:30;;;;;;;17.00;14.88;;;14.60;99.90;;;;;;5041085;28;20013;-58
2022/10/14 10:00:58;;;;;;;20.90;14.55;;;14.80;99.90;;;;;;5023050;28;20069;-59
2022/10/14 10:03:26;;;;;;;23.73;13.68;;;15.00;99.90;;;;;;5036271;28;20033;-58
2022/10/14 10:06:01;;;;;;;16.27;14.52;;;15.20;99.90;;;;;;5041238;28;20032;-59
2022/10/14 10:08:27;;;;;;;14.70;12.82;;;15.50;99.90;;;;;;5039840;28;20040;-58
2022/10/14 10:10:59;;;;;;;13.95;12.57;;;15.60;99.90;;;;;;5040971;28;20488;-58
2022/10/14 10:13:39;;;;;;;13.15;11.85;;;15.70;99.90;;;;;;5036404;28;20075;-57
2022/10/14 10:16:15;;;;;;;13.18;11.43;;;15.80;99.90;;;;;;4988740;28;20038;-58
2022/10/14 10:18:42;;;;;;;14.55;12.50;;;16.00;99.90;;;;;;5035715;28;20021;-59
2022/10/14 10:21:17;;;;;;;13.70;11.65;;;15.90;99.90;;;;;;5039980;28;20611;-58
2022/10/14 10:23:57;;;;;;;12.70;11.40;;;15.80;99.90;;;;;;5044277;28;20021;-60
2022/10/14 10:26:33;;;;;;;14.40;11.65;;;15.80;99.90;;;;;;5039254;28;20021;-58
2022/10/14 10:29:01;;;;;;;12.65;10.52;;;15.70;99.90;;;;;;5039824;28;20029;-59
2022/10/14 10:31:45;;;;;;;13.23;11.93;;;15.60;99.90;;;;;;5041877;28;20377;-59
2022/10/14 10:34:37;;;;;;;13.52;11.23;;;15.50;99.90;;;;;;5041501;28;20091;-58
2022/10/14 10:37:26;;;;;;;13.50;9.73;;;15.50;99.90;;;;;;4996701;28;20041;-58
2022/10/14 10:40:14;;;;;;;15.23;10.38;;;15.40;99.90;;;;;;5015396;28;20584;-59
2022/10/14 10:42:50;;;;;;;20.38;11.63;;;15.40;99.90;;;;;;5040988;28;20109;-58
2022/10/14 10:45:32;;;;;;;14.15;10.98;;;15.50;99.90;;;;;;5039120;28;20028;-59
2022/10/14 10:48:06;;;;;;;13.10;11.98;;;15.60;99.90;;;;;;5034757;28;20048;-59
2022/10/14 10:50:57;;;;;;;12.90;11.68;;;15.70;99.90;;;;;;5040275;28;20041;-60
2022/10/14 10:53:38;;;;;;;13.13;10.63;;;15.80;99.90;;;;;;5036161;28;20029;-60
2022/10/14 10:56:12;;;;;;;13.75;10.73;;;15.90;99.90;;;;;;5038338;28;20037;-59
2022/10/14 10:58:56;;;;;;;13.43;10.70;;;16.00;99.90;;;;;;5040174;28;20484;-58
2022/10/14 11:01:39;;;;;;;11.07;10.02;;;16.00;99.90;;;;;;5039435;28;20486;-58
2022/10/14 11:04:19;;;;;;;13.35;11.02;;;16.10;99.90;;;;;;5022144;28;20089;-59
2022/10/14 11:12:54;;;;;;;11.43;9.95;;;16.30;99.90;;;;;;5018854;28;20040;-58
2022/10/14 11:15:35;;;;;;;10.85;9.80;;;16.40;99.90;;;;;;5023564;28;20096;-59
2022/10/14 11:18:33;;;;;;;22.02;11.32;;;16.40;99.90;;;;;;5020766;28;20055;-60
2022/10/14 11:21:17;;;;;;;16.08;10.98;;;16.60;99.90;;;;;;5016606;28;20033;-59
2022/10/14 11:23:47;;;;;;;10.30;9.20;;;16.80;99.90;;;;;;5024183;28;20525;-59
2022/10/14 11:26:40;;;;;;;15.05;10.43;;;17.00;99.90;;;;;;5018704;28;20022;-58
2022/10/14 11:29:11;;;;;;;11.10;8.65;;;17.20;99.90;;;;;;5017163;28;20033;-59
2022/10/14 11:31:50;;;;;;;9.07;8.32;;;17.40;99.90;;;;;;5016818;28;20038;-58
2022/10/14 11:34:34;;;;;;;9.38;8.10;;;17.50;99.90;;;;;;5021347;28;20460;-59
2022/10/14 11:37:36;;;;;;;8.82;7.90;;;17.30;99.90;;;;;;5016308;28;20037;-59
2022/10/14 11:40:14;;;;;;;7.75;6.95;;;17.20;99.90;;;;;;5020951;28;20720;-58
2022/10/14 11:43:17;;;;;;;9.15;7.72;;;17.20;99.90;;;;;;5018263;28;20072;-58
2022/10/14 11:46:00;;;;;;;10.02;7.35;;;17.10;99.90;;;;;;5019105;28;20042;-59
2022/10/14 11:48:58;;;;;;;9.13;7.25;;;17.10;99.90;;;;;;5016808;28;20084;-59
2022/10/14 11:51:29;;;;;;;10.38;8.60;;;16.90;99.90;;;;;;5019019;28;20037;-58
2022/10/14 11:54:16;;;;;;;7.82;7.10;;;16.80;99.90;;;;;;5021203;28;20036;-59
2022/10/14 11:57:03;;;;;;;12.50;7.47;;;16.90;99.90;;;;;;5022733;28;20140;-59
2022/10/14 12:00:02;;;;;;;12.40;8.38;;;16.90;99.90;;;;;;5020803;28;20165;-58
2022/10/14 12:02:42;;;;;;;7.68;6.90;;;16.90;99.90;;;;;;5020010;28;20033;-59
2022/10/14 12:05:11;;;;;;;6.80;6.20;;;16.80;99.90;;;;;;5018476;28;20030;-60
2022/10/14 12:08:03;;;;;;;8.48;7.68;;;16.80;99.90;;;;;;5015636;28;20256;-59
2022/10/14 12:10:54;;;;;;;7.25;6.28;;;16.70;99.90;;;;;;5017511;28;20568;-58
2022/10/14 12:13:32;;;;;;;9.85;7.28;;;16.60;99.90;;;;;;5019691;28;20172;-58
2022/10/14 12:15:59;;;;;;;8.65;6.95;;;16.60;99.90;;;;;;5017477;28;20160;-57
2022/10/14 12:18:27;;;;;;;8.98;7.30;;;16.40;99.90;;;;;;5016766;28;20087;-58
2022/10/14 12:21:18;;;;;;;8.02;6.93;;;16.40;99.90;;;;;;5016671;28;20727;-59
2022/10/14 12:23:53;;;;;;;11.60;7.20;;;16.30;99.90;;;;;;5019277;28;20076;-59
2022/10/14 12:26:19;;;;;;;13.40;7.93;;;16.30;99.90;;;;;;5015160;28;20045;-59
2022/10/14 12:28:45;;;;;;;8.80;6.68;;;16.30;99.90;;;;;;5017321;28;20402;-59
2022/10/14 12:31:37;;;;;;;8.05;7.25;;;16.40;99.90;;;;;;5018578;28;20029;-59
2022/10/14 12:34:12;;;;;;;10.02;6.47;;;16.30;99.90;;;;;;5014997;28;20042;-59
2022/10/14 12:36:40;;;;;;;12.68;7.63;;;16.40;99.90;;;;;;5018259;28;20033;-59
2022/10/14 12:39:18;;;;;;;13.63;7.10;;;16.50;99.90;;;;;;5018206;28;20057;-59
2022/10/14 12:41:54;;;;;;;11.52;6.93;;;16.60;99.90;;;;;;5018463;28;20137;-59
2022/10/14 12:44:22;;;;;;;10.20;6.82;;;16.60;99.90;;;;;;5014835;28;20064;-59
2022/10/14 12:46:50;;;;;;;11.50;6.63;;;16.60;99.90;;;;;;5017184;28;20143;-58
2022/10/14 12:49:35;;;;;;;11.05;7.20;;;16.60;99.90;;;;;;5019945;28;20600;-58
2022/10/14 12:52:26;;;;;;;8.57;6.82;;;16.50;99.90;;;;;;5018794;28;20422;-58
2022/10/14 12:54:52;;;;;;;10.27;7.72;;;16.50;99.90;;;;;;5022587;28;20044;-61